createdAt,value
2023-04-15T00:02:01.548Z,100735.59
2023-04-15T00:04:31.872Z,100744.84
2023-04-15T00:07:00.910Z,100746.28
2023-04-15T00:09:29.884Z,100740.00
2023-04-15T00:11:58.917Z,100741.91
2023-04-15T00:14:29.379Z,100750.28
2023-04-15T00:16:58.605Z,100752.16
2023-04-15T00:19:27.673Z,100762.84
2023-04-15T00:21:56.745Z,100753.13
2023-04-15T00:24:25.908Z,100759.84
2023-04-15T00:26:54.876Z,100765.16
2023-04-15T00:29:23.761Z,100757.72
2023-04-15T00:31:54.846Z,100764.38
2023-04-15T00:34:23.851Z,100763.84
2023-04-15T00:36:52.807Z,100766.88
2023-04-15T00:39:22.853Z,100770.53
2023-04-15T00:41:52.101Z,100779.34
2023-04-15T00:44:21.226Z,100778.38
2023-04-15T00:46:54.156Z,100783.50
2023-04-15T00:49:23.934Z,100797.25
2023-04-15T00:51:53.703Z,100787.75
2023-04-15T00:54:22.885Z,100789.13
2023-04-15T00:56:52.238Z,100790.78
2023-04-15T00:59:22.684Z,100793.31
2023-04-15T01:01:53.669Z,100805.41
2023-04-15T01:04:23.117Z,100816.50
2023-04-15T01:06:52.338Z,100811.03
2023-04-15T01:09:21.678Z,100812.03
2023-04-15T01:11:53.089Z,100809.94
2023-04-15T01:14:22.555Z,100823.88
2023-04-15T01:16:52.259Z,100823.22
2023-04-15T01:19:22.815Z,100822.56
2023-04-15T01:21:52.165Z,100823.06
2023-04-15T01:24:21.392Z,100826.38
2023-04-15T01:26:52.780Z,100828.22
2023-04-15T01:29:22.532Z,100831.03
2023-04-15T01:31:53.766Z,100828.00
2023-04-15T01:34:41.478Z,100829.41
2023-04-15T01:37:29.301Z,100841.97
2023-04-15T01:39:58.572Z,100845.47
2023-04-15T01:42:28.962Z,100845.03
2023-04-15T01:44:59.205Z,100850.34
2023-04-15T01:47:29.513Z,100844.31
2023-04-15T01:49:59.808Z,100843.59
2023-04-15T01:52:32.305Z,100848.03
2023-04-15T01:55:02.584Z,100846.63
2023-04-15T01:57:35.630Z,100847.56
2023-04-15T02:00:07.898Z,100852.19
2023-04-15T02:02:44.025Z,100859.63
2023-04-15T02:05:14.773Z,100857.78
2023-04-15T02:07:47.437Z,100858.25
2023-04-15T02:10:17.925Z,100863.34
2023-04-15T02:12:49.710Z,100867.53
2023-04-15T02:15:20.235Z,100858.50
2023-04-15T02:17:55.458Z,100869.88
2023-04-15T02:20:25.865Z,100870.56
2023-04-15T02:22:56.917Z,100880.06
2023-04-15T02:25:27.124Z,100868.44
2023-04-15T02:28:00.505Z,100876.22
2023-04-15T02:30:30.720Z,100873.31
2023-04-15T02:33:01.660Z,100880.78
2023-04-15T02:35:32.317Z,100884.06
2023-04-15T02:38:03.350Z,100888.91
2023-04-15T02:40:33.650Z,100891.69
2023-04-15T02:43:07.060Z,100898.66
2023-04-15T02:45:38.019Z,100899.38
2023-04-15T02:48:09.069Z,100910.53
2023-04-15T02:50:41.021Z,100912.81
2023-04-15T02:53:17.750Z,100909.53
2023-04-15T02:55:48.079Z,100909.69
2023-04-15T02:58:19.676Z,100923.94
2023-04-15T03:00:52.044Z,100921.06
2023-04-15T03:03:22.656Z,100923.41
2023-04-15T03:05:52.996Z,100924.78
2023-04-15T03:08:23.279Z,100933.13
2023-04-15T03:10:54.458Z,100928.22
2023-04-15T03:13:27.800Z,100933.13
2023-04-15T03:16:00.242Z,100931.25
2023-04-15T03:18:31.238Z,100944.44
2023-04-15T03:21:05.550Z,100945.84
2023-04-15T03:23:38.575Z,100945.78
2023-04-15T03:26:08.903Z,100952.88
2023-04-15T03:28:41.152Z,100950.13
2023-04-15T03:31:11.389Z,100951.50
2023-04-15T03:33:41.860Z,100945.19
2023-04-15T03:36:12.156Z,100949.06
2023-04-15T03:38:42.579Z,100951.34
2023-04-15T03:41:13.305Z,100954.81
2023-04-15T03:43:44.956Z,100958.03
2023-04-15T03:46:15.244Z,100953.38
2023-04-15T03:48:45.512Z,100961.31
2023-04-15T03:51:15.908Z,100962.59
2023-04-15T03:53:46.321Z,100956.19
2023-04-15T03:56:16.620Z,100961.69
2023-04-15T03:58:48.233Z,100960.09
2023-04-15T04:01:18.718Z,100962.13
2023-04-15T04:03:49.248Z,100977.13
2023-04-15T04:06:19.692Z,100970.13
2023-04-15T04:08:49.958Z,100970.94
2023-04-15T04:11:21.255Z,100985.41
2023-04-15T04:13:53.083Z,100974.94
2023-04-15T04:16:23.480Z,100985.00
2023-04-15T04:18:53.822Z,100978.16
2023-04-15T04:21:24.180Z,100978.38
2023-04-15T04:23:54.578Z,100986.44
2023-04-15T04:26:24.809Z,100978.13
2023-04-15T04:28:56.424Z,100986.03
2023-04-15T04:31:27.518Z,100980.84
2023-04-15T04:33:58.024Z,100982.88
2023-04-15T04:36:28.325Z,100977.94
2023-04-15T04:38:58.563Z,100984.81
2023-04-15T04:41:29.035Z,100981.41
2023-04-15T04:44:00.841Z,100980.59
2023-04-15T04:46:31.093Z,100983.94
2023-04-15T04:49:01.456Z,100977.47
2023-04-15T04:51:32.876Z,100973.63
2023-04-15T04:54:03.936Z,100978.16
2023-04-15T04:56:34.788Z,100984.19
2023-04-15T04:59:07.179Z,100981.88
2023-04-15T05:01:37.589Z,100989.81
2023-04-15T05:04:09.092Z,100994.66
2023-04-15T05:06:40.431Z,100989.00
2023-04-15T05:09:10.691Z,100985.31
2023-04-15T05:11:41.717Z,100985.38
2023-04-15T05:14:13.549Z,100981.56
2023-04-15T05:16:43.726Z,100987.72
2023-04-15T05:19:14.181Z,100992.16
2023-04-15T05:21:44.740Z,100986.47
2023-04-15T05:24:15.184Z,100987.78
2023-04-15T05:26:45.458Z,100992.38
2023-04-15T05:29:17.071Z,100988.13
2023-04-15T05:31:48.442Z,100991.28
2023-04-15T05:34:19.196Z,100989.88
2023-04-15T05:36:49.483Z,100991.31
2023-04-15T05:39:19.859Z,100994.06
2023-04-15T05:41:50.254Z,100994.22
2023-04-15T05:44:22.085Z,101000.41
2023-04-15T05:46:52.425Z,100987.97
2023-04-15T05:49:22.756Z,100995.03
2023-04-15T05:51:53.295Z,101001.13
2023-04-15T05:54:23.858Z,101006.69
2023-04-15T05:56:54.133Z,101000.13
2023-04-15T05:59:26.057Z,101000.38
2023-04-15T06:01:57.417Z,101003.63
2023-04-15T06:04:27.997Z,101006.78
2023-04-15T06:06:58.363Z,101009.31
2023-04-15T06:09:29.115Z,101012.31
2023-04-15T06:12:01.854Z,101002.09
2023-04-15T06:14:33.726Z,101006.56
2023-04-15T06:17:29.112Z,101003.03
2023-04-15T06:19:59.353Z,101009.59
2023-04-15T06:22:29.762Z,101007.88
2023-04-15T06:25:00.361Z,101019.44
2023-04-15T06:27:32.776Z,101015.06
2023-04-15T06:30:04.866Z,101013.63
2023-04-15T06:32:35.871Z,101013.41
2023-04-15T06:35:06.914Z,101008.16
2023-04-15T06:37:37.353Z,101011.63
2023-04-15T06:40:10.214Z,101017.50
2023-04-15T06:42:40.870Z,101022.81
2023-04-15T06:45:13.631Z,101021.25
2023-04-15T06:47:43.936Z,101018.19
2023-04-15T06:50:14.680Z,101013.59
2023-04-15T06:52:45.354Z,101032.44
2023-04-15T06:55:16.056Z,101021.75
2023-04-15T06:57:46.636Z,101023.22
2023-04-15T07:00:19.334Z,101030.53
2023-04-15T07:02:49.754Z,101029.94
2023-04-15T07:05:20.392Z,101030.91
2023-04-15T07:07:50.669Z,101028.34
2023-04-15T07:10:21.384Z,101028.22
2023-04-15T07:12:52.058Z,101020.50
2023-04-15T07:15:24.294Z,101026.25
2023-04-15T07:17:54.816Z,101024.22
2023-04-15T07:20:25.251Z,101024.50
2023-04-15T07:22:56.574Z,101029.34
2023-04-15T07:25:26.996Z,101027.53
2023-04-15T07:27:57.309Z,101021.25
2023-04-15T07:30:29.127Z,101036.81
2023-04-15T07:33:00.517Z,101032.53
2023-04-15T07:35:56.066Z,101027.16
2023-04-15T07:38:26.504Z,101019.94
2023-04-15T07:40:56.899Z,101019.22
2023-04-15T07:43:27.108Z,101026.03
2023-04-15T07:45:58.850Z,101019.88
2023-04-15T07:48:29.143Z,101017.53
2023-04-15T07:50:59.473Z,101012.50
2023-04-15T07:53:29.860Z,101018.66
2023-04-15T07:56:00.402Z,101019.00
2023-04-15T07:58:31.265Z,101005.09
2023-04-15T08:01:03.435Z,101009.78
2023-04-15T08:03:34.587Z,101011.56
2023-04-15T08:06:05.757Z,101008.13
2023-04-15T08:08:36.320Z,101016.41
2023-04-15T08:11:06.852Z,101014.78
2023-04-15T08:13:37.274Z,101021.03
2023-04-15T08:16:21.602Z,101026.94
2023-04-15T08:18:52.936Z,101013.44
2023-04-15T08:21:24.060Z,101016.88
2023-04-15T08:23:55.094Z,101011.94
2023-04-15T08:26:25.498Z,101013.28
2023-04-15T08:28:55.764Z,101009.25
2023-04-15T08:31:30.864Z,101005.31
2023-04-15T08:34:01.421Z,101004.63
2023-04-15T08:36:35.005Z,101007.47
2023-04-15T08:39:05.991Z,100996.66
2023-04-15T08:41:47.966Z,101003.19
2023-04-15T08:44:20.491Z,101002.63
2023-04-15T08:46:53.392Z,100999.69
2023-04-15T08:49:28.700Z,100997.91
2023-04-15T08:52:00.297Z,100999.59
2023-04-15T08:54:31.024Z,101010.66
2023-04-15T08:57:02.499Z,101005.00
2023-04-15T08:59:32.942Z,101016.47
2023-04-15T09:02:05.545Z,100995.81
2023-04-15T09:04:38.268Z,100995.41
2023-04-15T09:07:10.479Z,101004.72
2023-04-15T09:09:42.304Z,100996.34
2023-04-15T09:12:13.087Z,100993.31
2023-04-15T09:14:43.936Z,101004.34
2023-04-15T09:17:20.882Z,100991.41
2023-04-15T09:19:51.413Z,100979.72
2023-04-15T09:22:22.820Z,100982.56
2023-04-15T09:24:53.243Z,100985.19
2023-04-15T09:27:23.712Z,100972.22
2023-04-15T09:29:55.511Z,100976.53
2023-04-15T09:32:27.488Z,100980.47
2023-04-15T09:34:57.924Z,100982.34
2023-04-15T09:37:37.307Z,100985.25
2023-04-15T09:40:10.215Z,100974.50
2023-04-15T09:42:56.237Z,100981.75
2023-04-15T09:45:29.707Z,100976.22
2023-04-15T09:48:18.608Z,100985.84
2023-04-15T09:50:50.438Z,100976.56
2023-04-15T09:53:22.489Z,100975.50
2023-04-15T09:55:54.806Z,100979.56
2023-04-15T09:58:27.848Z,100972.50
2023-04-15T10:00:59.776Z,100969.00
2023-04-15T10:03:34.457Z,100972.69
2023-04-15T10:06:06.164Z,100981.97
2023-04-15T10:09:19.615Z,100968.13
2023-04-15T10:11:51.864Z,100979.56
2023-04-15T10:14:23.024Z,100970.50
2023-04-15T10:16:57.918Z,100966.88
2023-04-15T10:22:37.434Z,100959.97
2023-04-15T10:25:09.207Z,100953.34
2023-04-15T10:27:43.614Z,100957.06
2023-04-15T10:30:18.090Z,100954.88
2023-04-15T10:32:51.572Z,100964.19
2023-04-15T10:35:24.492Z,100956.88
2023-04-15T10:37:54.907Z,100958.88
2023-04-15T10:40:27.490Z,100957.44
2023-04-15T10:43:01.176Z,100960.03
2023-04-15T10:45:35.080Z,100948.03
2023-04-15T10:48:08.540Z,100958.03
2023-04-15T10:50:41.865Z,100958.34
2023-04-15T10:53:12.601Z,100958.97
2023-04-15T10:56:01.272Z,100946.25
2023-04-15T10:58:43.336Z,100949.25
2023-04-15T11:01:58.669Z,100953.25
2023-04-15T11:05:19.014Z,100950.09
2023-04-15T11:07:53.673Z,100946.84
2023-04-15T11:10:57.618Z,100941.19
2023-04-15T11:13:50.640Z,100939.16
2023-04-15T11:16:21.039Z,100941.78
2023-04-15T11:19:00.504Z,100946.03
2023-04-15T11:21:31.026Z,100932.84
2023-04-15T11:24:04.411Z,100946.34
2023-04-15T11:26:35.069Z,100949.03
2023-04-15T11:29:05.711Z,100946.66
2023-04-15T11:31:36.334Z,100944.25
2023-04-15T11:34:07.373Z,100945.06
2023-04-15T11:36:45.101Z,100928.66
2023-04-15T11:39:17.164Z,100933.16
2023-04-15T11:41:47.694Z,100935.59
2023-04-15T11:44:54.791Z,100930.41
2023-04-15T11:47:25.365Z,100936.66
2023-04-15T11:49:55.693Z,100932.28
2023-04-15T11:52:26.122Z,100917.28
2023-04-15T11:55:22.105Z,100909.31
2023-04-15T11:57:51.774Z,100917.69
2023-04-15T12:00:22.048Z,100911.84
2023-04-15T12:02:51.259Z,100918.13
2023-04-15T12:05:20.726Z,100904.88
2023-04-15T12:08:07.588Z,100921.13
2023-04-15T12:10:38.289Z,100916.19
2023-04-15T12:13:14.760Z,100908.69
2023-04-15T12:15:43.985Z,100911.75
2023-04-15T12:18:19.112Z,100901.31
2023-04-15T12:20:54.328Z,100907.75
2023-04-15T12:23:23.944Z,100902.03
2023-04-15T12:26:12.932Z,100890.88
2023-04-15T12:28:43.429Z,100899.03
2023-04-15T12:31:15.417Z,100908.63
2023-04-15T12:33:46.103Z,100899.47
2023-04-15T12:36:15.879Z,100894.59
2023-04-15T12:38:45.226Z,100891.22
2023-04-15T12:41:16.422Z,100890.59
2023-04-15T12:43:46.857Z,100897.47
2023-04-15T12:46:17.083Z,100898.56
2023-04-15T12:48:46.555Z,100890.88
2023-04-15T12:51:17.429Z,100891.22
2023-04-15T12:54:25.824Z,100884.00
2023-04-15T12:56:57.116Z,100893.06
2023-04-15T12:59:26.688Z,100888.13
2023-04-15T13:01:56.438Z,100874.19
2023-04-15T13:04:25.754Z,100880.44
2023-04-15T13:06:54.966Z,100871.66
2023-04-15T13:09:24.249Z,100880.38
2023-04-15T13:11:54.600Z,100883.31
2023-04-15T13:14:43.818Z,100877.06
2023-04-15T13:17:13.481Z,100882.28
2023-04-15T13:20:00.844Z,100878.13
2023-04-15T13:22:47.323Z,100881.03
2023-04-15T13:25:37.456Z,100882.53
2023-04-15T13:28:13.485Z,100883.69
2023-04-15T13:30:44.311Z,100880.16
2023-04-15T13:33:38.468Z,100886.31
2023-04-15T13:36:08.001Z,100886.94
2023-04-15T13:38:55.684Z,100884.31
2023-04-15T13:41:43.453Z,100885.00
2023-04-15T13:44:12.831Z,100884.34
2023-04-15T13:46:43.423Z,100893.72
2023-04-15T13:49:12.451Z,100890.75
2023-04-15T13:51:41.979Z,100886.53
2023-04-15T13:54:11.166Z,100897.69
2023-04-15T13:56:40.399Z,100893.56
2023-04-15T13:59:09.490Z,100886.78
2023-04-15T14:01:38.674Z,100891.06
2023-04-15T14:04:09.750Z,100886.06
2023-04-15T14:06:39.287Z,100894.22
2023-04-15T14:09:08.411Z,100888.66
2023-04-15T14:11:39.453Z,100890.31
2023-04-15T14:14:27.199Z,100887.72
2023-04-15T14:17:15.373Z,100879.56
2023-04-15T14:19:46.040Z,100880.75
2023-04-15T14:22:15.274Z,100883.78
2023-04-15T14:24:44.892Z,100882.94
2023-04-15T14:27:32.660Z,100878.31
2023-04-15T14:30:01.908Z,100881.09
2023-04-15T14:32:50.993Z,100877.19
2023-04-15T14:35:21.439Z,100877.69
2023-04-15T14:37:50.777Z,100877.91
2023-04-15T14:40:20.468Z,100886.16
2023-04-15T14:42:49.955Z,100880.88
2023-04-15T14:45:19.398Z,100884.66
2023-04-15T14:47:48.815Z,100888.94
2023-04-15T14:50:20.818Z,100881.97
2023-04-15T14:53:08.483Z,100881.44
2023-04-15T14:55:37.827Z,100875.13
2023-04-15T14:58:08.492Z,100873.97
2023-04-15T15:00:40.605Z,100867.56
2023-04-15T15:03:13.080Z,100872.75
2023-04-15T15:05:47.074Z,100865.06
2023-04-15T15:08:16.424Z,100869.38
2023-04-15T15:10:48.580Z,100858.94
2023-04-15T15:13:19.626Z,100863.25
2023-04-15T15:18:37.310Z,100870.25
2023-04-15T15:21:08.062Z,100869.66
2023-04-15T15:23:37.500Z,100871.63
2023-04-15T15:26:06.993Z,100869.81
2023-04-15T15:28:36.479Z,100871.53
2023-04-15T15:31:06.237Z,100873.06
2023-04-15T15:33:35.429Z,100877.41
2023-04-15T15:36:05.319Z,100872.50
2023-04-15T15:38:35.945Z,100873.41
2023-04-15T15:41:06.414Z,100865.38
2023-04-15T15:43:35.683Z,100870.78
2023-04-15T15:46:05.151Z,100868.56
2023-04-15T15:48:34.334Z,100868.00
2023-04-15T15:51:04.405Z,100859.47
2023-04-15T15:53:33.486Z,100865.00
2023-04-15T15:56:04.376Z,100862.00
2023-04-15T15:58:33.649Z,100864.34
2023-04-15T16:01:02.782Z,100869.47
2023-04-15T16:03:32.012Z,100871.56
2023-04-15T16:06:01.173Z,100871.88
2023-04-15T16:08:30.178Z,100875.34
2023-04-15T16:11:00.773Z,100879.59
2023-04-15T16:13:31.329Z,100886.19
2023-04-15T16:16:00.768Z,100877.97
2023-04-15T16:18:29.808Z,100878.28
2023-04-15T16:21:00.203Z,100881.56
2023-04-15T16:23:29.372Z,100880.31
2023-04-15T16:25:58.759Z,100880.22
2023-04-15T16:28:46.161Z,100889.75
2023-04-15T16:31:16.731Z,100891.09
2023-04-15T16:33:45.904Z,100895.56
2023-04-15T16:36:15.737Z,100887.44
2023-04-15T16:38:48.603Z,100886.69
2023-04-15T16:41:18.748Z,100891.19
2023-04-15T16:44:08.542Z,100896.00
2023-04-15T16:46:40.886Z,100893.81
2023-04-15T16:49:10.159Z,100891.22
2023-04-15T16:51:39.283Z,100901.22
2023-04-15T16:54:08.593Z,100900.50
2023-04-15T16:56:37.649Z,100885.88
2023-04-15T16:59:06.776Z,100906.41
2023-04-15T17:01:36.244Z,100912.69
2023-04-15T17:04:07.258Z,100904.56
2023-04-15T17:06:36.444Z,100905.28
2023-04-15T17:09:23.830Z,100911.75
2023-04-15T17:12:46.752Z,100907.16
2023-04-15T17:15:21.580Z,100911.97
2023-04-15T17:18:02.092Z,100908.81
2023-04-15T17:20:40.854Z,100904.94
2023-04-15T17:23:31.073Z,100914.16
2023-04-15T17:26:03.475Z,100917.47
2023-04-15T17:28:37.659Z,100921.72
2023-04-15T17:31:38.997Z,100918.59
2023-04-15T17:34:50.329Z,100919.31
2023-04-15T17:37:41.662Z,100920.03
2023-04-15T17:40:48.305Z,100927.41
2023-04-15T17:43:37.676Z,100921.09
2023-04-15T17:46:26.809Z,100928.31
2023-04-15T17:49:15.757Z,100924.03
2023-04-15T17:52:04.831Z,100923.41
2023-04-15T17:55:13.760Z,100934.63
2023-04-15T17:58:02.797Z,100932.75
2023-04-15T18:01:09.156Z,100933.31
2023-04-15T18:03:58.064Z,100940.28
2023-04-15T18:06:47.333Z,100935.66
2023-04-15T18:09:36.391Z,100940.63
2023-04-15T18:12:27.852Z,100938.38
2023-04-15T18:15:17.168Z,100944.28
2023-04-15T18:18:06.171Z,100946.31
2023-04-15T18:20:35.050Z,100940.78
2023-04-15T18:23:04.839Z,100942.75
2023-04-15T18:25:34.333Z,100939.44
2023-04-15T18:28:05.346Z,100941.22
2023-04-15T18:30:34.336Z,100939.91
2023-04-15T18:33:03.774Z,100939.16
2023-04-15T18:35:32.800Z,100939.16
2023-04-15T18:38:01.877Z,100936.56
2023-04-15T18:40:31.564Z,100935.97
2023-04-15T18:43:00.717Z,100940.75
2023-04-15T18:45:31.606Z,100937.28
2023-04-15T18:48:19.098Z,100942.50
2023-04-15T18:50:48.324Z,100949.13
2023-04-15T18:53:17.387Z,100946.56
2023-04-15T18:55:46.906Z,100948.91
2023-04-15T18:58:16.233Z,100947.25
2023-04-15T19:00:46.939Z,100953.28
2023-04-15T19:03:16.708Z,100945.66
2023-04-15T19:06:04.674Z,100957.78
2023-04-15T19:08:34.118Z,100955.00
2023-04-15T19:11:03.332Z,100965.94
2023-04-15T19:13:32.610Z,100960.38
2023-04-15T19:16:03.439Z,100958.84
2023-04-15T19:18:32.388Z,100968.06
2023-04-15T19:21:01.577Z,100963.00
2023-04-15T19:23:32.306Z,100969.47
2023-04-15T19:26:01.535Z,100961.44
2023-04-15T19:28:31.247Z,100961.59
2023-04-15T19:31:00.360Z,100968.72
2023-04-15T19:33:32.216Z,100967.66
2023-04-15T19:36:04.217Z,100966.19
2023-04-15T19:38:51.618Z,100971.34
2023-04-15T19:41:39.936Z,100968.19
2023-04-15T19:44:09.090Z,100977.19
2023-04-15T19:46:38.175Z,100985.06
2023-04-15T19:49:08.856Z,100982.47
2023-04-15T19:51:38.033Z,100977.25
2023-04-15T19:54:07.190Z,100989.94
2023-04-15T19:56:36.229Z,100987.47
2023-04-15T19:59:22.829Z,100992.22
2023-04-15T20:01:52.037Z,100995.22
2023-04-15T20:04:22.955Z,100997.69
2023-04-15T20:06:52.140Z,100998.38
2023-04-15T20:09:21.426Z,100999.84
2023-04-15T20:12:46.122Z,101002.53
2023-04-15T20:14:40.755Z,101004.13
2023-04-15T20:17:10.004Z,101008.84
2023-04-15T20:19:40.635Z,101009.09
2023-04-15T20:22:26.931Z,101009.00
2023-04-15T20:25:13.165Z,101013.75
2023-04-15T20:27:42.240Z,101012.63
2023-04-15T20:30:12.245Z,101010.44
2023-04-15T20:32:43.790Z,101012.94
2023-04-15T20:35:14.295Z,101009.69
2023-04-15T20:37:45.249Z,101013.59
2023-04-15T20:40:16.012Z,101010.22
2023-04-15T20:42:45.229Z,101020.09
2023-04-15T20:45:14.363Z,101017.19
2023-04-15T20:47:43.687Z,101024.13
2023-04-15T20:50:14.621Z,101022.69
2023-04-15T20:52:43.777Z,101020.84
2023-04-15T20:55:12.900Z,101026.38
2023-04-15T20:57:50.375Z,101027.00
2023-04-15T21:00:21.644Z,101028.53
2023-04-15T21:02:51.073Z,101031.09
2023-04-15T21:05:21.897Z,101031.41
2023-04-15T21:07:51.154Z,101033.66
2023-04-15T21:10:20.288Z,101034.72
2023-04-15T21:12:49.683Z,101034.81
2023-04-15T21:15:18.866Z,101032.63
2023-04-15T21:17:48.166Z,101038.31
2023-04-15T21:20:17.819Z,101036.16
2023-04-15T21:22:48.379Z,101037.59
2023-04-15T21:25:17.628Z,101036.44
2023-04-15T21:27:46.631Z,101039.31
2023-04-15T21:30:16.519Z,101042.44
2023-04-15T21:32:45.583Z,101047.78
2023-04-15T21:35:14.831Z,101040.28
2023-04-15T21:37:43.870Z,101043.97
2023-04-15T21:40:14.943Z,101043.03
2023-04-15T21:42:43.970Z,101041.19
2023-04-15T21:45:13.457Z,101042.19
2023-04-15T21:48:00.802Z,101043.22
2023-04-15T21:50:31.744Z,101045.47
2023-04-15T21:53:00.936Z,101050.28
2023-04-15T21:55:31.416Z,101057.38
2023-04-15T21:58:00.658Z,101048.59
2023-04-15T22:00:29.691Z,101051.75
2023-04-15T22:02:58.967Z,101058.84
2023-04-15T22:05:28.102Z,101051.63
2023-04-15T22:07:58.381Z,101058.50
2023-04-15T22:10:28.747Z,101059.34
2023-04-15T22:13:02.615Z,101061.59
2023-04-15T22:15:31.681Z,101064.25
2023-04-15T22:18:00.682Z,101061.25
2023-04-15T22:20:30.012Z,101063.38
2023-04-15T22:22:59.340Z,101064.56
2023-04-15T22:25:28.367Z,101066.94
2023-04-15T22:27:58.887Z,101064.66
2023-04-15T22:30:28.077Z,101065.06
2023-04-15T22:32:57.368Z,101067.00
2023-04-15T22:35:26.500Z,101069.66
2023-04-15T22:37:56.073Z,101074.34
2023-04-15T22:40:25.192Z,101071.81
2023-04-15T22:42:54.610Z,101069.19
2023-04-15T22:45:25.033Z,101072.50
2023-04-15T22:47:54.207Z,101073.31
2023-04-15T22:50:23.596Z,101079.66
2023-04-15T22:52:52.765Z,101071.69
2023-04-15T22:55:21.768Z,101074.78
2023-04-15T22:57:50.732Z,101088.09
2023-04-15T23:00:19.867Z,101082.06
2023-04-15T23:02:50.349Z,101078.38
2023-04-15T23:05:19.615Z,101080.22
2023-04-15T23:07:48.610Z,101086.81
2023-04-15T23:10:17.793Z,101086.28
2023-04-15T23:12:48.258Z,101086.81
2023-04-15T23:15:17.220Z,101097.09
2023-04-15T23:17:46.454Z,101101.59
2023-04-15T23:20:17.065Z,101101.34
2023-04-15T23:22:46.978Z,101103.44
2023-04-15T23:25:18.443Z,101107.84
2023-04-15T23:27:49.016Z,101101.84
2023-04-15T23:30:18.171Z,101104.91
2023-04-15T23:32:47.262Z,101108.44
2023-04-15T23:35:18.113Z,101108.47
2023-04-15T23:37:47.034Z,101116.63
2023-04-15T23:40:16.605Z,101108.00
2023-04-15T23:42:45.564Z,101117.56
2023-04-15T23:45:14.741Z,101119.44
2023-04-15T23:47:43.672Z,101121.56
2023-04-15T23:50:13.163Z,101121.13
2023-04-15T23:52:43.630Z,101128.16
2023-04-15T23:55:12.713Z,101129.63
2023-04-15T23:57:42.074Z,101137.31
